sensor_id;sensor_type;location;lat;lon;timestamp;P1;durP1;ratioP1;P2;durP2;ratioP2
62584;SDS011;48643;51.670;5.808;2023-05-16T00:00:36;7.00;;;2.72;;
62584;SDS011;48643;51.670;5.808;2023-05-16T00:03:03;5.03;;;2.50;;
62584;SDS011;48643;51.670;5.808;2023-05-16T00:05:31;8.40;;;2.67;;
62584;SDS011;48643;51.670;5.808;2023-05-16T00:07:59;7.93;;;2.53;;
62584;SDS011;48643;51.670;5.808;2023-05-16T00:10:26;5.82;;;2.20;;
62584;SDS011;48643;51.670;5.808;2023-05-16T00:12:53;9.07;;;2.63;;
62584;SDS011;48643;51.670;5.808;2023-05-16T00:15:21;7.60;;;2.40;;
62584;SDS011;48643;51.670;5.808;2023-05-16T00:17:48;5.22;;;2.30;;
62584;SDS011;48643;51.670;5.808;2023-05-16T00:20:15;5.63;;;2.10;;
62584;SDS011;48643;51.670;5.808;2023-05-16T00:22:48;6.13;;;2.42;;
62584;SDS011;48643;51.670;5.808;2023-05-16T00:25:15;6.75;;;2.50;;
62584;SDS011;48643;51.670;5.808;2023-05-16T00:27:41;5.75;;;2.40;;
62584;SDS011;48643;51.670;5.808;2023-05-16T00:30:09;9.73;;;2.80;;
62584;SDS011;48643;51.670;5.808;2023-05-16T00:32:36;7.90;;;2.47;;
62584;SDS011;48643;51.670;5.808;2023-05-16T00:35:03;25.98;;;11.55;;
62584;SDS011;48643;51.670;5.808;2023-05-16T00:37:31;12.85;;;8.68;;
62584;SDS011;48643;51.670;5.808;2023-05-16T00:39:58;14.40;;;10.18;;
62584;SDS011;48643;51.670;5.808;2023-05-16T00:42:25;6.95;;;2.15;;
62584;SDS011;48643;51.670;5.808;2023-05-16T00:44:52;17.40;;;11.25;;
62584;SDS011;48643;51.670;5.808;2023-05-16T00:47:19;13.10;;;7.13;;
62584;SDS011;48643;51.670;5.808;2023-05-16T00:49:46;6.07;;;2.20;;
62584;SDS011;48643;51.670;5.808;2023-05-16T00:52:14;4.60;;;1.80;;
62584;SDS011;48643;51.670;5.808;2023-05-16T00:54:41;9.98;;;6.63;;
62584;SDS011;48643;51.670;5.808;2023-05-16T00:57:08;13.95;;;9.32;;
62584;SDS011;48643;51.670;5.808;2023-05-16T00:59:35;5.55;;;2.45;;
62584;SDS011;48643;51.670;5.808;2023-05-16T01:02:02;7.07;;;2.10;;
62584;SDS011;48643;51.670;5.808;2023-05-16T01:04:29;12.88;;;7.93;;
62584;SDS011;48643;51.670;5.808;2023-05-16T01:06:57;8.40;;;2.70;;
62584;SDS011;48643;51.670;5.808;2023-05-16T01:09:24;8.95;;;2.90;;
62584;SDS011;48643;51.670;5.808;2023-05-16T01:11:52;5.93;;;2.40;;
62584;SDS011;48643;51.670;5.808;2023-05-16T01:28:43;7.13;;;2.45;;
62584;SDS011;48643;51.670;5.808;2023-05-16T01:31:11;8.73;;;2.35;;
62584;SDS011;48643;51.670;5.808;2023-05-16T01:33:38;13.27;;;10.30;;
62584;SDS011;48643;51.670;5.808;2023-05-16T01:36:08;14.52;;;9.52;;
62584;SDS011;48643;51.670;5.808;2023-05-16T01:38:41;11.57;;;8.07;;
62584;SDS011;48643;51.670;5.808;2023-05-16T01:41:18;17.05;;;11.20;;
62584;SDS011;48643;51.670;5.808;2023-05-16T01:43:50;14.30;;;8.18;;
62584;SDS011;48643;51.670;5.808;2023-05-16T01:46:23;5.10;;;1.73;;
62584;SDS011;48643;51.670;5.808;2023-05-16T01:48:53;6.93;;;1.90;;
62584;SDS011;48643;51.670;5.808;2023-05-16T01:51:51;6.07;;;1.90;;
62584;SDS011;48643;51.670;5.808;2023-05-16T01:54:22;7.32;;;1.80;;
62584;SDS011;48643;51.670;5.808;2023-05-16T01:56:51;7.60;;;2.17;;
62584;SDS011;48643;51.670;5.808;2023-05-16T01:59:20;8.07;;;2.38;;
62584;SDS011;48643;51.670;5.808;2023-05-16T02:01:47;7.07;;;2.15;;
62584;SDS011;48643;51.670;5.808;2023-05-16T02:04:14;8.48;;;2.35;;
62584;SDS011;48643;51.670;5.808;2023-05-16T02:06:42;6.95;;;2.20;;
62584;SDS011;48643;51.670;5.808;2023-05-16T02:09:09;7.70;;;2.10;;
62584;SDS011;48643;51.670;5.808;2023-05-16T02:11:38;7.22;;;1.90;;
62584;SDS011;48643;51.670;5.808;2023-05-16T02:14:05;8.15;;;2.15;;
62584;SDS011;48643;51.670;5.808;2023-05-16T02:16:32;6.00;;;2.00;;
62584;SDS011;48643;51.670;5.808;2023-05-16T02:18:59;7.32;;;2.13;;
62584;SDS011;48643;51.670;5.808;2023-05-16T02:21:26;5.75;;;2.10;;
62584;SDS011;48643;51.670;5.808;2023-05-16T02:23:54;6.00;;;2.00;;
62584;SDS011;48643;51.670;5.808;2023-05-16T02:26:21;5.47;;;2.00;;
62584;SDS011;48643;51.670;5.808;2023-05-16T02:28:47;6.95;;;2.03;;
62584;SDS011;48643;51.670;5.808;2023-05-16T02:31:30;6.43;;;2.00;;
62584;SDS011;48643;51.670;5.808;2023-05-16T02:33:58;9.05;;;2.30;;
62584;SDS011;48643;51.670;5.808;2023-05-16T02:36:25;134.15;;;4.35;;
62584;SDS011;48643;51.670;5.808;2023-05-16T02:38:52;8.00;;;2.05;;
62584;SDS011;48643;51.670;5.808;2023-05-16T02:41:20;6.65;;;2.10;;
62584;SDS011;48643;51.670;5.808;2023-05-16T02:43:48;7.20;;;2.13;;
62584;SDS011;48643;51.670;5.808;2023-05-16T02:46:32;6.13;;;1.80;;
62584;SDS011;48643;51.670;5.808;2023-05-16T02:48:59;8.25;;;2.13;;
62584;SDS011;48643;51.670;5.808;2023-05-16T02:51:27;8.48;;;1.83;;
62584;SDS011;48643;51.670;5.808;2023-05-16T02:53:54;8.50;;;2.00;;
62584;SDS011;48643;51.670;5.808;2023-05-16T02:56:22;7.43;;;2.07;;
62584;SDS011;48643;51.670;5.808;2023-05-16T02:58:49;6.45;;;1.88;;
62584;SDS011;48643;51.670;5.808;2023-05-16T03:01:16;5.65;;;1.92;;
62584;SDS011;48643;51.670;5.808;2023-05-16T03:03:43;5.40;;;1.73;;
62584;SDS011;48643;51.670;5.808;2023-05-16T03:06:10;8.75;;;1.90;;
62584;SDS011;48643;51.670;5.808;2023-05-16T03:08:37;10.45;;;2.08;;
62584;SDS011;48643;51.670;5.808;2023-05-16T03:11:04;7.90;;;2.08;;
62584;SDS011;48643;51.670;5.808;2023-05-16T03:13:31;5.68;;;2.00;;
62584;SDS011;48643;51.670;5.808;2023-05-16T03:15:58;7.30;;;2.00;;
62584;SDS011;48643;51.670;5.808;2023-05-16T03:18:25;7.22;;;2.17;;
62584;SDS011;48643;51.670;5.808;2023-05-16T03:20:52;8.18;;;1.92;;
62584;SDS011;48643;51.670;5.808;2023-05-16T03:23:22;6.07;;;1.95;;
62584;SDS011;48643;51.670;5.808;2023-05-16T03:25:49;8.45;;;2.30;;
62584;SDS011;48643;51.670;5.808;2023-05-16T03:28:19;7.13;;;2.08;;
62584;SDS011;48643;51.670;5.808;2023-05-16T03:30:46;4.57;;;1.70;;
62584;SDS011;48643;51.670;5.808;2023-05-16T03:33:12;6.78;;;2.00;;
62584;SDS011;48643;51.670;5.808;2023-05-16T03:35:39;7.53;;;1.92;;
62584;SDS011;48643;51.670;5.808;2023-05-16T03:38:07;7.50;;;2.00;;
62584;SDS011;48643;51.670;5.808;2023-05-16T03:40:35;7.75;;;1.83;;
62584;SDS011;48643;51.670;5.808;2023-05-16T03:43:02;7.63;;;2.13;;
62584;SDS011;48643;51.670;5.808;2023-05-16T03:45:29;8.65;;;2.03;;
62584;SDS011;48643;51.670;5.808;2023-05-16T03:47:57;5.68;;;2.00;;
62584;SDS011;48643;51.670;5.808;2023-05-16T03:50:23;7.47;;;1.90;;
62584;SDS011;48643;51.670;5.808;2023-05-16T03:52:50;6.40;;;1.90;;
62584;SDS011;48643;51.670;5.808;2023-05-16T03:55:19;4.65;;;1.60;;
62584;SDS011;48643;51.670;5.808;2023-05-16T03:57:46;7.88;;;2.15;;
62584;SDS011;48643;51.670;5.808;2023-05-16T04:00:15;8.32;;;1.85;;
62584;SDS011;48643;51.670;5.808;2023-05-16T04:02:42;7.28;;;1.80;;
62584;SDS011;48643;51.670;5.808;2023-05-16T04:05:09;6.75;;;1.85;;
62584;SDS011;48643;51.670;5.808;2023-05-16T04:07:37;7.60;;;1.88;;
62584;SDS011;48643;51.670;5.808;2023-05-16T04:10:04;7.10;;;2.13;;
62584;SDS011;48643;51.670;5.808;2023-05-16T04:12:31;6.70;;;2.00;;
62584;SDS011;48643;51.670;5.808;2023-05-16T04:14:58;5.50;;;1.77;;
62584;SDS011;48643;51.670;5.808;2023-05-16T04:17:26;7.28;;;1.88;;
62584;SDS011;48643;51.670;5.808;2023-05-16T04:19:53;4.82;;;1.80;;
62584;SDS011;48643;51.670;5.808;2023-05-16T04:22:20;7.70;;;1.90;;
62584;SDS011;48643;51.670;5.808;2023-05-16T04:24:48;5.70;;;1.83;;
62584;SDS011;48643;51.670;5.808;2023-05-16T04:27:15;7.78;;;2.00;;
62584;SDS011;48643;51.670;5.808;2023-05-16T04:29:42;5.78;;;1.80;;
62584;SDS011;48643;51.670;5.808;2023-05-16T04:32:09;6.25;;;1.95;;
62584;SDS011;48643;51.670;5.808;2023-05-16T04:34:37;9.10;;;2.03;;
62584;SDS011;48643;51.670;5.808;2023-05-16T04:37:06;8.50;;;2.20;;
62584;SDS011;48643;51.670;5.808;2023-05-16T04:39:34;4.88;;;1.80;;
62584;SDS011;48643;51.670;5.808;2023-05-16T04:42:01;6.78;;;2.17;;
62584;SDS011;48643;51.670;5.808;2023-05-16T04:44:29;5.60;;;1.80;;
62584;SDS011;48643;51.670;5.808;2023-05-16T04:46:57;7.18;;;1.83;;
62584;SDS011;48643;51.670;5.808;2023-05-16T04:49:24;8.82;;;2.15;;
62584;SDS011;48643;51.670;5.808;2023-05-16T04:51:51;7.53;;;1.95;;
62584;SDS011;48643;51.670;5.808;2023-05-16T04:54:19;5.78;;;1.85;;
62584;SDS011;48643;51.670;5.808;2023-05-16T04:56:46;7.78;;;2.30;;
62584;SDS011;48643;51.670;5.808;2023-05-16T04:59:13;5.72;;;2.05;;
62584;SDS011;48643;51.670;5.808;2023-05-16T05:01:40;6.75;;;2.13;;
62584;SDS011;48643;51.670;5.808;2023-05-16T05:04:07;7.25;;;2.00;;
62584;SDS011;48643;51.670;5.808;2023-05-16T05:06:34;8.20;;;2.17;;
62584;SDS011;48643;51.670;5.808;2023-05-16T05:09:01;7.07;;;1.98;;
62584;SDS011;48643;51.670;5.808;2023-05-16T05:11:31;7.63;;;1.75;;
62584;SDS011;48643;51.670;5.808;2023-05-16T05:13:58;6.78;;;1.83;;
62584;SDS011;48643;51.670;5.808;2023-05-16T05:16:24;8.20;;;2.03;;
62584;SDS011;48643;51.670;5.808;2023-05-16T05:18:51;6.55;;;1.67;;
62584;SDS011;48643;51.670;5.808;2023-05-16T05:21:18;5.68;;;1.80;;
62584;SDS011;48643;51.670;5.808;2023-05-16T05:23:45;8.20;;;2.13;;
62584;SDS011;48643;51.670;5.808;2023-05-16T05:26:14;5.10;;;1.58;;
62584;SDS011;48643;51.670;5.808;2023-05-16T05:28:42;7.57;;;2.28;;
62584;SDS011;48643;51.670;5.808;2023-05-16T05:31:22;3.80;;;1.70;;
62584;SDS011;48643;51.670;5.808;2023-05-16T05:33:50;8.43;;;1.98;;
62584;SDS011;48643;51.670;5.808;2023-05-16T05:36:17;4.53;;;1.90;;
62584;SDS011;48643;51.670;5.808;2023-05-16T05:38:44;8.30;;;2.03;;
62584;SDS011;48643;51.670;5.808;2023-05-16T05:41:11;7.75;;;1.88;;
62584;SDS011;48643;51.670;5.808;2023-05-16T05:43:39;6.93;;;2.03;;
62584;SDS011;48643;51.670;5.808;2023-05-16T05:46:07;6.75;;;2.03;;
62584;SDS011;48643;51.670;5.808;2023-05-16T05:48:34;11.27;;;2.17;;
62584;SDS011;48643;51.670;5.808;2023-05-16T05:51:01;9.38;;;2.10;;
62584;SDS011;48643;51.670;5.808;2023-05-16T05:53:28;5.45;;;1.85;;
62584;SDS011;48643;51.670;5.808;2023-05-16T05:55:55;6.88;;;2.15;;
62584;SDS011;48643;51.670;5.808;2023-05-16T05:58:22;6.05;;;1.83;;
62584;SDS011;48643;51.670;5.808;2023-05-16T06:00:49;7.22;;;1.92;;
62584;SDS011;48643;51.670;5.808;2023-05-16T06:03:17;5.50;;;1.98;;
62584;SDS011;48643;51.670;5.808;2023-05-16T06:05:43;7.75;;;2.20;;
62584;SDS011;48643;51.670;5.808;2023-05-16T06:08:10;6.95;;;1.80;;
62584;SDS011;48643;51.670;5.808;2023-05-16T06:10:37;11.75;;;2.20;;
62584;SDS011;48643;51.670;5.808;2023-05-16T06:13:04;15.45;;;2.97;;
62584;SDS011;48643;51.670;5.808;2023-05-16T06:15:31;14.85;;;2.67;;
62584;SDS011;48643;51.670;5.808;2023-05-16T06:17:58;15.40;;;2.63;;
62584;SDS011;48643;51.670;5.808;2023-05-16T06:20:25;12.15;;;2.35;;
62584;SDS011;48643;51.670;5.808;2023-05-16T06:22:52;11.25;;;2.53;;
62584;SDS011;48643;51.670;5.808;2023-05-16T06:25:21;8.32;;;2.05;;
62584;SDS011;48643;51.670;5.808;2023-05-16T06:27:47;10.40;;;2.10;;
62584;SDS011;48643;51.670;5.808;2023-05-16T06:30:15;7.38;;;2.20;;
62584;SDS011;48643;51.670;5.808;2023-05-16T06:32:41;8.25;;;2.22;;
62584;SDS011;48643;51.670;5.808;2023-05-16T06:35:09;9.68;;;2.15;;
62584;SDS011;48643;51.670;5.808;2023-05-16T06:37:36;17.50;;;2.45;;
62584;SDS011;48643;51.670;5.808;2023-05-16T06:40:06;11.30;;;2.38;;
62584;SDS011;48643;51.670;5.808;2023-05-16T06:42:34;11.25;;;2.33;;
62584;SDS011;48643;51.670;5.808;2023-05-16T06:45:01;10.88;;;2.10;;
62584;SDS011;48643;51.670;5.808;2023-05-16T06:47:27;9.43;;;2.08;;
62584;SDS011;48643;51.670;5.808;2023-05-16T06:49:54;10.50;;;2.10;;
62584;SDS011;48643;51.670;5.808;2023-05-16T06:52:21;9.93;;;2.30;;
62584;SDS011;48643;51.670;5.808;2023-05-16T06:54:49;7.90;;;2.10;;
62584;SDS011;48643;51.670;5.808;2023-05-16T06:57:17;12.70;;;2.75;;
62584;SDS011;48643;51.670;5.808;2023-05-16T06:59:44;9.38;;;2.28;;
62584;SDS011;48643;51.670;5.808;2023-05-16T07:02:11;10.93;;;2.50;;
62584;SDS011;48643;51.670;5.808;2023-05-16T07:04:38;9.52;;;2.15;;
62584;SDS011;48643;51.670;5.808;2023-05-16T07:07:05;11.98;;;2.38;;
62584;SDS011;48643;51.670;5.808;2023-05-16T07:09:34;10.70;;;2.17;;
62584;SDS011;48643;51.670;5.808;2023-05-16T07:12:01;11.75;;;2.20;;
62584;SDS011;48643;51.670;5.808;2023-05-16T07:14:29;6.55;;;1.98;;
62584;SDS011;48643;51.670;5.808;2023-05-16T07:16:56;11.88;;;2.42;;
62584;SDS011;48643;51.670;5.808;2023-05-16T07:19:24;12.45;;;2.13;;
62584;SDS011;48643;51.670;5.808;2023-05-16T07:21:51;13.25;;;2.10;;
62584;SDS011;48643;51.670;5.808;2023-05-16T07:24:20;11.27;;;2.00;;
62584;SDS011;48643;51.670;5.808;2023-05-16T07:26:48;7.80;;;1.77;;
62584;SDS011;48643;51.670;5.808;2023-05-16T07:29:15;13.32;;;2.38;;
62584;SDS011;48643;51.670;5.808;2023-05-16T07:31:42;9.07;;;2.22;;
62584;SDS011;48643;51.670;5.808;2023-05-16T07:34:09;13.77;;;2.20;;
62584;SDS011;48643;51.670;5.808;2023-05-16T07:36:37;11.52;;;2.13;;
62584;SDS011;48643;51.670;5.808;2023-05-16T07:39:04;9.10;;;1.75;;
62584;SDS011;48643;51.670;5.808;2023-05-16T07:41:31;9.65;;;2.30;;
62584;SDS011;48643;51.670;5.808;2023-05-16T07:43:58;11.48;;;2.08;;
62584;SDS011;48643;51.670;5.808;2023-05-16T07:46:25;20.50;;;2.58;;
62584;SDS011;48643;51.670;5.808;2023-05-16T07:48:52;7.45;;;2.22;;
62584;SDS011;48643;51.670;5.808;2023-05-16T07:51:19;10.43;;;2.33;;
62584;SDS011;48643;51.670;5.808;2023-05-16T07:53:46;9.43;;;2.30;;
62584;SDS011;48643;51.670;5.808;2023-05-16T07:56:13;10.30;;;2.15;;
62584;SDS011;48643;51.670;5.808;2023-05-16T07:58:40;9.93;;;2.20;;
62584;SDS011;48643;51.670;5.808;2023-05-16T08:01:07;11.93;;;2.03;;
62584;SDS011;48643;51.670;5.808;2023-05-16T08:03:34;9.70;;;2.00;;
62584;SDS011;48643;51.670;5.808;2023-05-16T08:06:02;6.97;;;2.13;;
62584;SDS011;48643;51.670;5.808;2023-05-16T08:08:29;13.20;;;2.20;;
62584;SDS011;48643;51.670;5.808;2023-05-16T08:10:57;9.93;;;2.28;;
62584;SDS011;48643;51.670;5.808;2023-05-16T08:13:24;7.07;;;1.95;;
62584;SDS011;48643;51.670;5.808;2023-05-16T08:15:51;11.15;;;1.98;;
62584;SDS011;48643;51.670;5.808;2023-05-16T08:18:19;14.48;;;2.97;;
62584;SDS011;48643;51.670;5.808;2023-05-16T08:20:48;10.52;;;2.13;;
62584;SDS011;48643;51.670;5.808;2023-05-16T08:23:16;12.73;;;2.28;;
62584;SDS011;48643;51.670;5.808;2023-05-16T08:25:43;7.22;;;1.90;;
62584;SDS011;48643;51.670;5.808;2023-05-16T08:28:10;6.45;;;1.52;;
62584;SDS011;48643;51.670;5.808;2023-05-16T08:30:37;15.20;;;1.65;;
62584;SDS011;48643;51.670;5.808;2023-05-16T08:33:08;7.85;;;1.65;;
62584;SDS011;48643;51.670;5.808;2023-05-16T08:35:36;9.93;;;1.97;;
62584;SDS011;48643;51.670;5.808;2023-05-16T08:38:03;9.35;;;2.05;;
62584;SDS011;48643;51.670;5.808;2023-05-16T08:40:30;5.90;;;1.85;;
62584;SDS011;48643;51.670;5.808;2023-05-16T08:42:57;8.65;;;2.30;;
62584;SDS011;48643;51.670;5.808;2023-05-16T08:45:24;10.15;;;1.95;;
62584;SDS011;48643;51.670;5.808;2023-05-16T08:47:53;10.35;;;2.00;;
62584;SDS011;48643;51.670;5.808;2023-05-16T08:50:23;10.90;;;1.80;;
62584;SDS011;48643;51.670;5.808;2023-05-16T08:52:51;9.48;;;1.88;;
62584;SDS011;48643;51.670;5.808;2023-05-16T08:55:19;11.23;;;2.42;;
62584;SDS011;48643;51.670;5.808;2023-05-16T08:57:50;15.18;;;2.30;;
62584;SDS011;48643;51.670;5.808;2023-05-16T09:00:20;7.03;;;2.10;;
62584;SDS011;48643;51.670;5.808;2023-05-16T09:02:48;14.18;;;2.00;;
62584;SDS011;48643;51.670;5.808;2023-05-16T09:05:15;8.43;;;2.05;;
62584;SDS011;48643;51.670;5.808;2023-05-16T09:07:44;12.30;;;2.25;;
62584;SDS011;48643;51.670;5.808;2023-05-16T09:10:11;11.48;;;2.20;;
62584;SDS011;48643;51.670;5.808;2023-05-16T09:12:39;9.07;;;2.25;;
62584;SDS011;48643;51.670;5.808;2023-05-16T09:15:08;12.50;;;2.28;;
62584;SDS011;48643;51.670;5.808;2023-05-16T09:17:37;11.80;;;1.83;;
62584;SDS011;48643;51.670;5.808;2023-05-16T09:20:25;10.65;;;2.45;;
62584;SDS011;48643;51.670;5.808;2023-05-16T09:22:53;10.80;;;1.92;;
62584;SDS011;48643;51.670;5.808;2023-05-16T09:25:22;11.35;;;2.40;;
62584;SDS011;48643;51.670;5.808;2023-05-16T09:27:54;7.00;;;2.05;;
62584;SDS011;48643;51.670;5.808;2023-05-16T09:30:23;11.90;;;2.45;;
62584;SDS011;48643;51.670;5.808;2023-05-16T09:33:02;13.43;;;2.50;;
62584;SDS011;48643;51.670;5.808;2023-05-16T09:35:33;11.13;;;2.40;;
62584;SDS011;48643;51.670;5.808;2023-05-16T09:38:14;17.65;;;2.20;;
62584;SDS011;48643;51.670;5.808;2023-05-16T09:40:44;6.70;;;1.90;;
62584;SDS011;48643;51.670;5.808;2023-05-16T09:43:13;10.47;;;2.20;;
62584;SDS011;48643;51.670;5.808;2023-05-16T09:45:46;9.05;;;2.22;;
62584;SDS011;48643;51.670;5.808;2023-05-16T09:48:14;6.38;;;1.88;;
62584;SDS011;48643;51.670;5.808;2023-05-16T09:50:48;8.07;;;2.20;;
62584;SDS011;48643;51.670;5.808;2023-05-16T09:53:25;5.45;;;2.00;;
62584;SDS011;48643;51.670;5.808;2023-05-16T09:56:03;9.88;;;1.98;;
62584;SDS011;48643;51.670;5.808;2023-05-16T09:58:38;9.15;;;1.77;;
62584;SDS011;48643;51.670;5.808;2023-05-16T10:01:07;4.80;;;1.90;;
62584;SDS011;48643;51.670;5.808;2023-05-16T10:03:35;6.78;;;1.70;;
62584;SDS011;48643;51.670;5.808;2023-05-16T10:06:04;5.68;;;1.73;;
62584;SDS011;48643;51.670;5.808;2023-05-16T10:08:32;8.03;;;1.93;;
62584;SDS011;48643;51.670;5.808;2023-05-16T10:11:03;7.20;;;1.70;;
62584;SDS011;48643;51.670;5.808;2023-05-16T10:13:32;3.85;;;1.70;;
62584;SDS011;48643;51.670;5.808;2023-05-16T10:18:34;3.63;;;1.63;;
62584;SDS011;48643;51.670;5.808;2023-05-16T10:21:06;3.42;;;1.65;;
62584;SDS011;48643;51.670;5.808;2023-05-16T10:23:40;5.82;;;1.73;;
62584;SDS011;48643;51.670;5.808;2023-05-16T10:26:08;6.20;;;1.70;;
62584;SDS011;48643;51.670;5.808;2023-05-16T10:28:39;8.73;;;1.90;;
62584;SDS011;48643;51.670;5.808;2023-05-16T10:31:07;7.72;;;1.60;;
62584;SDS011;48643;51.670;5.808;2023-05-16T10:36:03;8.10;;;1.90;;
62584;SDS011;48643;51.670;5.808;2023-05-16T10:38:30;8.60;;;1.58;;
62584;SDS011;48643;51.670;5.808;2023-05-16T10:40:58;12.23;;;1.88;;
62584;SDS011;48643;51.670;5.808;2023-05-16T10:43:25;8.85;;;1.73;;
62584;SDS011;48643;51.670;5.808;2023-05-16T10:45:54;9.40;;;1.80;;
62584;SDS011;48643;51.670;5.808;2023-05-16T10:48:34;6.32;;;1.60;;
62584;SDS011;48643;51.670;5.808;2023-05-16T10:51:03;4.43;;;1.70;;
62584;SDS011;48643;51.670;5.808;2023-05-16T10:53:52;6.30;;;1.55;;
62584;SDS011;48643;51.670;5.808;2023-05-16T10:56:24;3.90;;;1.30;;
62584;SDS011;48643;51.670;5.808;2023-05-16T10:58:53;8.88;;;1.63;;
62584;SDS011;48643;51.670;5.808;2023-05-16T11:01:32;9.13;;;1.83;;
62584;SDS011;48643;51.670;5.808;2023-05-16T11:04:04;6.53;;;1.70;;
62584;SDS011;48643;51.670;5.808;2023-05-16T11:14:21;5.55;;;1.77;;
62584;SDS011;48643;51.670;5.808;2023-05-16T11:16:53;4.90;;;1.50;;
62584;SDS011;48643;51.670;5.808;2023-05-16T11:19:47;7.28;;;1.80;;
62584;SDS011;48643;51.670;5.808;2023-05-16T11:22:25;4.47;;;1.45;;
62584;SDS011;48643;51.670;5.808;2023-05-16T11:25:01;6.35;;;1.70;;
62584;SDS011;48643;51.670;5.808;2023-05-16T11:27:34;4.85;;;1.48;;
62584;SDS011;48643;51.670;5.808;2023-05-16T11:32:32;7.30;;;1.80;;
62584;SDS011;48643;51.670;5.808;2023-05-16T11:37:29;4.88;;;1.55;;
62584;SDS011;48643;51.670;5.808;2023-05-16T11:39:59;7.70;;;1.65;;
62584;SDS011;48643;51.670;5.808;2023-05-16T11:42:28;5.13;;;1.40;;
62584;SDS011;48643;51.670;5.808;2023-05-16T11:47:40;9.25;;;1.60;;
62584;SDS011;48643;51.670;5.808;2023-05-16T11:52:39;5.15;;;1.30;;
62584;SDS011;48643;51.670;5.808;2023-05-16T11:55:09;6.63;;;1.60;;
62584;SDS011;48643;51.670;5.808;2023-05-16T11:57:37;5.50;;;1.77;;
62584;SDS011;48643;51.670;5.808;2023-05-16T12:00:04;7.13;;;1.80;;
62584;SDS011;48643;51.670;5.808;2023-05-16T12:02:46;2.75;;;1.20;;
62584;SDS011;48643;51.670;5.808;2023-05-16T12:05:15;4.35;;;1.38;;
62584;SDS011;48643;51.670;5.808;2023-05-16T12:07:43;3.27;;;1.50;;
62584;SDS011;48643;51.670;5.808;2023-05-16T12:10:14;3.72;;;1.60;;
62584;SDS011;48643;51.670;5.808;2023-05-16T12:12:43;5.80;;;1.58;;
62584;SDS011;48643;51.670;5.808;2023-05-16T12:15:11;7.07;;;1.80;;
62584;SDS011;48643;51.670;5.808;2023-05-16T12:17:39;4.57;;;1.48;;
62584;SDS011;48643;51.670;5.808;2023-05-16T12:20:07;4.45;;;1.25;;
62584;SDS011;48643;51.670;5.808;2023-05-16T12:22:39;4.43;;;1.33;;
62584;SDS011;48643;51.670;5.808;2023-05-16T12:27:59;3.78;;;1.50;;
62584;SDS011;48643;51.670;5.808;2023-05-16T12:30:30;3.95;;;1.63;;
62584;SDS011;48643;51.670;5.808;2023-05-16T12:33:01;4.63;;;1.63;;
62584;SDS011;48643;51.670;5.808;2023-05-16T12:35:33;4.72;;;1.60;;
62584;SDS011;48643;51.670;5.808;2023-05-16T12:38:05;5.00;;;1.70;;
62584;SDS011;48643;51.670;5.808;2023-05-16T12:40:37;5.13;;;1.50;;
62584;SDS011;48643;51.670;5.808;2023-05-16T12:43:14;4.75;;;1.50;;
62584;SDS011;48643;51.670;5.808;2023-05-16T12:45:42;4.80;;;1.50;;
62584;SDS011;48643;51.670;5.808;2023-05-16T12:48:18;3.17;;;1.50;;
62584;SDS011;48643;51.670;5.808;2023-05-16T12:50:45;6.97;;;1.55;;
62584;SDS011;48643;51.670;5.808;2023-05-16T12:53:14;6.57;;;1.63;;
62584;SDS011;48643;51.670;5.808;2023-05-16T12:55:43;5.38;;;1.60;;
62584;SDS011;48643;51.670;5.808;2023-05-16T12:58:10;4.63;;;1.40;;
62584;SDS011;48643;51.670;5.808;2023-05-16T13:00:37;3.83;;;1.58;;
62584;SDS011;48643;51.670;5.808;2023-05-16T13:03:05;9.48;;;1.35;;
62584;SDS011;48643;51.670;5.808;2023-05-16T13:05:34;5.03;;;1.60;;
62584;SDS011;48643;51.670;5.808;2023-05-16T13:08:02;5.00;;;1.52;;
62584;SDS011;48643;51.670;5.808;2023-05-16T13:10:29;3.53;;;1.50;;
62584;SDS011;48643;51.670;5.808;2023-05-16T13:12:56;4.38;;;1.38;;
62584;SDS011;48643;51.670;5.808;2023-05-16T13:15:26;6.03;;;1.50;;
62584;SDS011;48643;51.670;5.808;2023-05-16T13:17:54;5.72;;;1.45;;
62584;SDS011;48643;51.670;5.808;2023-05-16T13:20:21;5.50;;;1.60;;
62584;SDS011;48643;51.670;5.808;2023-05-16T13:22:48;8.70;;;1.60;;
62584;SDS011;48643;51.670;5.808;2023-05-16T13:25:15;10.45;;;2.00;;
62584;SDS011;48643;51.670;5.808;2023-05-16T13:27:43;6.13;;;1.63;;
62584;SDS011;48643;51.670;5.808;2023-05-16T13:30:10;9.98;;;1.80;;
62584;SDS011;48643;51.670;5.808;2023-05-16T13:32:37;8.57;;;1.65;;
62584;SDS011;48643;51.670;5.808;2023-05-16T13:35:04;10.73;;;1.52;;
62584;SDS011;48643;51.670;5.808;2023-05-16T13:37:32;9.50;;;1.90;;
62584;SDS011;48643;51.670;5.808;2023-05-16T13:39:59;7.07;;;1.65;;
62584;SDS011;48643;51.670;5.808;2023-05-16T13:42:26;10.95;;;1.70;;
62584;SDS011;48643;51.670;5.808;2023-05-16T13:44:54;10.63;;;1.85;;
62584;SDS011;48643;51.670;5.808;2023-05-16T13:47:21;6.72;;;1.33;;
62584;SDS011;48643;51.670;5.808;2023-05-16T13:49:48;7.13;;;1.52;;
62584;SDS011;48643;51.670;5.808;2023-05-16T13:52:14;12.07;;;1.60;;
62584;SDS011;48643;51.670;5.808;2023-05-16T13:54:41;9.00;;;1.60;;
62584;SDS011;48643;51.670;5.808;2023-05-16T13:57:08;7.75;;;1.92;;
62584;SDS011;48643;51.670;5.808;2023-05-16T13:59:35;20.17;;;1.80;;
62584;SDS011;48643;51.670;5.808;2023-05-16T14:02:22;9.65;;;1.50;;
62584;SDS011;48643;51.670;5.808;2023-05-16T14:07:18;3.95;;;1.25;;
62584;SDS011;48643;51.670;5.808;2023-05-16T14:09:45;10.10;;;1.90;;
62584;SDS011;48643;51.670;5.808;2023-05-16T14:12:13;6.40;;;1.60;;
62584;SDS011;48643;51.670;5.808;2023-05-16T14:14:40;6.07;;;1.80;;
62584;SDS011;48643;51.670;5.808;2023-05-16T14:17:07;5.35;;;1.52;;
62584;SDS011;48643;51.670;5.808;2023-05-16T14:19:34;6.05;;;1.90;;
62584;SDS011;48643;51.670;5.808;2023-05-16T14:22:01;17.58;;;1.80;;
62584;SDS011;48643;51.670;5.808;2023-05-16T14:24:28;9.32;;;1.83;;
62584;SDS011;48643;51.670;5.808;2023-05-16T14:26:55;6.55;;;1.90;;
62584;SDS011;48643;51.670;5.808;2023-05-16T14:29:22;29.33;;;2.55;;
62584;SDS011;48643;51.670;5.808;2023-05-16T14:31:51;15.13;;;2.00;;
62584;SDS011;48643;51.670;5.808;2023-05-16T14:34:18;8.35;;;1.88;;
62584;SDS011;48643;51.670;5.808;2023-05-16T14:36:45;7.63;;;2.10;;
62584;SDS011;48643;51.670;5.808;2023-05-16T14:39:12;10.05;;;1.90;;
62584;SDS011;48643;51.670;5.808;2023-05-16T14:41:39;8.40;;;1.63;;
62584;SDS011;48643;51.670;5.808;2023-05-16T14:44:06;10.70;;;1.60;;
62584;SDS011;48643;51.670;5.808;2023-05-16T14:46:33;8.95;;;2.08;;
62584;SDS011;48643;51.670;5.808;2023-05-16T14:49:00;10.68;;;1.85;;
62584;SDS011;48643;51.670;5.808;2023-05-16T14:51:27;9.43;;;2.00;;
62584;SDS011;48643;51.670;5.808;2023-05-16T14:53:54;6.38;;;1.80;;
62584;SDS011;48643;51.670;5.808;2023-05-16T14:56:21;9.10;;;1.80;;
62584;SDS011;48643;51.670;5.808;2023-05-16T14:58:48;7.32;;;1.80;;
62584;SDS011;48643;51.670;5.808;2023-05-16T15:01:15;11.20;;;2.00;;
62584;SDS011;48643;51.670;5.808;2023-05-16T15:03:42;8.40;;;1.67;;
62584;SDS011;48643;51.670;5.808;2023-05-16T15:06:20;11.73;;;2.00;;
62584;SDS011;48643;51.670;5.808;2023-05-16T15:08:47;5.90;;;1.98;;
62584;SDS011;48643;51.670;5.808;2023-05-16T15:11:14;5.90;;;1.70;;
62584;SDS011;48643;51.670;5.808;2023-05-16T15:13:41;11.23;;;1.80;;
62584;SDS011;48643;51.670;5.808;2023-05-16T15:16:08;7.20;;;1.90;;
62584;SDS011;48643;51.670;5.808;2023-05-16T15:18:35;23.85;;;2.72;;
62584;SDS011;48643;51.670;5.808;2023-05-16T15:21:02;10.80;;;2.03;;
62584;SDS011;48643;51.670;5.808;2023-05-16T15:23:29;8.95;;;2.03;;
62584;SDS011;48643;51.670;5.808;2023-05-16T15:25:56;10.10;;;2.03;;
62584;SDS011;48643;51.670;5.808;2023-05-16T15:28:23;6.38;;;1.85;;
62584;SDS011;48643;51.670;5.808;2023-05-16T15:30:49;10.70;;;2.10;;
62584;SDS011;48643;51.670;5.808;2023-05-16T15:33:17;9.52;;;1.98;;